sensor_id;sensor_type;location;lat;lon;timestamp;temperature;humidity
60234;DHT22;49514;43.538;-5.708;2022-12-18T00:00:33;9.70;99.90
60234;DHT22;49514;43.538;-5.708;2022-12-18T00:02:59;9.80;99.90
60234;DHT22;49514;43.538;-5.708;2022-12-18T00:05:26;9.70;99.90
60234;DHT22;49514;43.538;-5.708;2022-12-18T00:07:53;9.70;99.90
60234;DHT22;49514;43.538;-5.708;2022-12-18T00:10:19;9.70;99.90
60234;DHT22;49514;43.538;-5.708;2022-12-18T00:12:45;9.70;99.90
60234;DHT22;49514;43.538;-5.708;2022-12-18T00:15:12;9.70;99.90
60234;DHT22;49514;43.538;-5.708;2022-12-18T00:17:38;9.60;99.90
60234;DHT22;49514;43.538;-5.708;2022-12-18T00:20:05;9.60;99.90
60234;DHT22;49514;43.538;-5.708;2022-12-18T00:22:31;9.60;99.90
60234;DHT22;49514;43.538;-5.708;2022-12-18T00:24:57;9.60;99.90
60234;DHT22;49514;43.538;-5.708;2022-12-18T00:27:24;9.50;99.90
60234;DHT22;49514;43.538;-5.708;2022-12-18T00:29:50;9.50;99.90
60234;DHT22;49514;43.538;-5.708;2022-12-18T00:32:17;9.50;99.90
60234;DHT22;49514;43.538;-5.708;2022-12-18T00:34:44;9.40;99.90
60234;DHT22;49514;43.538;-5.708;2022-12-18T00:37:10;9.40;99.90
60234;DHT22;49514;43.538;-5.708;2022-12-18T00:39:36;9.30;99.90
60234;DHT22;49514;43.538;-5.708;2022-12-18T00:42:03;9.30;99.90
60234;DHT22;49514;43.538;-5.708;2022-12-18T00:44:48;9.30;99.90
60234;DHT22;49514;43.538;-5.708;2022-12-18T00:47:14;9.20;99.90
60234;DHT22;49514;43.538;-5.708;2022-12-18T00:49:40;9.20;99.90
60234;DHT22;49514;43.538;-5.708;2022-12-18T00:52:07;9.10;99.90
60234;DHT22;49514;43.538;-5.708;2022-12-18T00:54:33;9.10;99.90
60234;DHT22;49514;43.538;-5.708;2022-12-18T00:57:00;9.00;99.90
60234;DHT22;49514;43.538;-5.708;2022-12-18T00:59:26;9.10;99.90
60234;DHT22;49514;43.538;-5.708;2022-12-18T01:01:53;9.00;99.90
60234;DHT22;49514;43.538;-5.708;2022-12-18T01:04:20;9.00;99.90
60234;DHT22;49514;43.538;-5.708;2022-12-18T01:06:46;9.00;99.90
60234;DHT22;49514;43.538;-5.708;2022-12-18T01:09:13;9.00;99.90
60234;DHT22;49514;43.538;-5.708;2022-12-18T01:11:39;9.00;99.90
60234;DHT22;49514;43.538;-5.708;2022-12-18T01:14:06;9.00;99.90
60234;DHT22;49514;43.538;-5.708;2022-12-18T01:16:32;9.00;99.90
60234;DHT22;49514;43.538;-5.708;2022-12-18T01:18:58;9.00;99.90
60234;DHT22;49514;43.538;-5.708;2022-12-18T01:21:27;9.00;99.90
60234;DHT22;49514;43.538;-5.708;2022-12-18T01:23:53;8.90;99.90
60234;DHT22;49514;43.538;-5.708;2022-12-18T01:26:20;8.90;99.90
60234;DHT22;49514;43.538;-5.708;2022-12-18T01:28:47;8.90;99.90
60234;DHT22;49514;43.538;-5.708;2022-12-18T01:31:24;8.90;99.90
60234;DHT22;49514;43.538;-5.708;2022-12-18T01:33:51;8.90;99.90
60234;DHT22;49514;43.538;-5.708;2022-12-18T01:36:20;8.90;99.90
60234;DHT22;49514;43.538;-5.708;2022-12-18T01:38:47;8.90;99.90
60234;DHT22;49514;43.538;-5.708;2022-12-18T01:41:15;8.80;99.90
60234;DHT22;49514;43.538;-5.708;2022-12-18T01:46:12;8.80;99.90
60234;DHT22;49514;43.538;-5.708;2022-12-18T01:48:39;8.80;99.90
60234;DHT22;49514;43.538;-5.708;2022-12-18T01:51:06;8.80;99.90
60234;DHT22;49514;43.538;-5.708;2022-12-18T01:53:34;8.80;99.90
60234;DHT22;49514;43.538;-5.708;2022-12-18T01:56:02;8.80;99.90
60234;DHT22;49514;43.538;-5.708;2022-12-18T02:01:13;8.80;99.90
60234;DHT22;49514;43.538;-5.708;2022-12-18T02:03:43;8.70;99.90
60234;DHT22;49514;43.538;-5.708;2022-12-18T02:11:12;8.70;99.90
60234;DHT22;49514;43.538;-5.708;2022-12-18T02:13:52;8.70;99.90
60234;DHT22;49514;43.538;-5.708;2022-12-18T02:19:06;8.70;99.90
60234;DHT22;49514;43.538;-5.708;2022-12-18T02:21:45;8.70;99.90
60234;DHT22;49514;43.538;-5.708;2022-12-18T02:26:56;8.70;99.90
60234;DHT22;49514;43.538;-5.708;2022-12-18T02:29:29;8.70;99.90
60234;DHT22;49514;43.538;-5.708;2022-12-18T02:31:58;8.70;99.90
60234;DHT22;49514;43.538;-5.708;2022-12-18T02:34:27;8.70;99.90
60234;DHT22;49514;43.538;-5.708;2022-12-18T02:36:55;8.70;99.90
60234;DHT22;49514;43.538;-5.708;2022-12-18T02:39:25;8.60;99.90
60234;DHT22;49514;43.538;-5.708;2022-12-18T02:42:04;8.60;99.90
60234;DHT22;49514;43.538;-5.708;2022-12-18T02:44:34;8.60;99.90
60234;DHT22;49514;43.538;-5.708;2022-12-18T02:47:01;8.60;99.90
60234;DHT22;49514;43.538;-5.708;2022-12-18T02:57:37;8.80;99.90
60234;DHT22;49514;43.538;-5.708;2022-12-18T03:02:43;8.70;99.90
60234;DHT22;49514;43.538;-5.708;2022-12-18T03:05:20;8.70;99.90
60234;DHT22;49514;43.538;-5.708;2022-12-18T03:07:57;8.70;99.90
60234;DHT22;49514;43.538;-5.708;2022-12-18T03:10:28;8.70;99.90
60234;DHT22;49514;43.538;-5.708;2022-12-18T03:13:00;8.70;99.90
60234;DHT22;49514;43.538;-5.708;2022-12-18T03:15:29;8.60;99.90
60234;DHT22;49514;43.538;-5.708;2022-12-18T03:18:07;8.60;99.90
60234;DHT22;49514;43.538;-5.708;2022-12-18T03:20:35;8.60;99.90
60234;DHT22;49514;43.538;-5.708;2022-12-18T03:23:07;8.60;99.90
60234;DHT22;49514;43.538;-5.708;2022-12-18T03:25:36;8.60;99.90
60234;DHT22;49514;43.538;-5.708;2022-12-18T03:28:03;8.60;99.90
60234;DHT22;49514;43.538;-5.708;2022-12-18T03:30:33;8.60;99.90
60234;DHT22;49514;43.538;-5.708;2022-12-18T03:33:07;8.60;99.90
60234;DHT22;49514;43.538;-5.708;2022-12-18T03:35:38;8.50;99.90
60234;DHT22;49514;43.538;-5.708;2022-12-18T03:38:06;8.50;99.90
60234;DHT22;49514;43.538;-5.708;2022-12-18T03:40:59;8.50;99.90
60234;DHT22;49514;43.538;-5.708;2022-12-18T03:46:00;8.50;99.90
60234;DHT22;49514;43.538;-5.708;2022-12-18T03:48:33;8.50;99.90
60234;DHT22;49514;43.538;-5.708;2022-12-18T03:51:10;8.40;99.90
60234;DHT22;49514;43.538;-5.708;2022-12-18T03:56:05;8.40;99.90
60234;DHT22;49514;43.538;-5.708;2022-12-18T03:58:37;8.40;99.90
60234;DHT22;49514;43.538;-5.708;2022-12-18T04:01:16;8.30;99.90
60234;DHT22;49514;43.538;-5.708;2022-12-18T04:03:44;8.30;99.90
60234;DHT22;49514;43.538;-5.708;2022-12-18T04:06:13;8.30;99.90
60234;DHT22;49514;43.538;-5.708;2022-12-18T04:08:41;8.30;99.90
60234;DHT22;49514;43.538;-5.708;2022-12-18T04:11:10;8.30;99.90
60234;DHT22;49514;43.538;-5.708;2022-12-18T04:13:38;8.30;99.90
60234;DHT22;49514;43.538;-5.708;2022-12-18T04:16:08;8.30;99.90
60234;DHT22;49514;43.538;-5.708;2022-12-18T04:18:38;8.20;99.90
60234;DHT22;49514;43.538;-5.708;2022-12-18T04:21:04;8.20;99.90
60234;DHT22;49514;43.538;-5.708;2022-12-18T04:23:32;8.20;99.90
60234;DHT22;49514;43.538;-5.708;2022-12-18T04:25:59;8.20;99.90
60234;DHT22;49514;43.538;-5.708;2022-12-18T04:28:54;8.20;99.90
60234;DHT22;49514;43.538;-5.708;2022-12-18T04:31:21;8.20;99.90
60234;DHT22;49514;43.538;-5.708;2022-12-18T04:33:47;8.20;99.90
60234;DHT22;49514;43.538;-5.708;2022-12-18T04:36:14;8.10;99.90
60234;DHT22;49514;43.538;-5.708;2022-12-18T04:38:41;8.10;99.90
60234;DHT22;49514;43.538;-5.708;2022-12-18T04:41:12;8.10;99.90
60234;DHT22;49514;43.538;-5.708;2022-12-18T04:43:40;8.10;99.90
60234;DHT22;49514;43.538;-5.708;2022-12-18T04:46:07;8.10;99.90
60234;DHT22;49514;43.538;-5.708;2022-12-18T04:48:34;8.10;99.90
60234;DHT22;49514;43.538;-5.708;2022-12-18T04:51:02;8.10;99.90
60234;DHT22;49514;43.538;-5.708;2022-12-18T04:53:28;8.10;99.90
60234;DHT22;49514;43.538;-5.708;2022-12-18T04:56:11;8.10;99.90
60234;DHT22;49514;43.538;-5.708;2022-12-18T04:58:38;8.20;99.90
60234;DHT22;49514;43.538;-5.708;2022-12-18T05:01:05;8.20;99.90
60234;DHT22;49514;43.538;-5.708;2022-12-18T05:03:33;8.20;99.90
60234;DHT22;49514;43.538;-5.708;2022-12-18T05:06:00;8.20;99.90
60234;DHT22;49514;43.538;-5.708;2022-12-18T05:08:27;8.20;99.90
60234;DHT22;49514;43.538;-5.708;2022-12-18T05:13:21;8.20;99.90
60234;DHT22;49514;43.538;-5.708;2022-12-18T05:15:51;8.30;99.90
60234;DHT22;49514;43.538;-5.708;2022-12-18T05:18:17;8.30;99.90
60234;DHT22;49514;43.538;-5.708;2022-12-18T05:20:44;8.30;99.90
60234;DHT22;49514;43.538;-5.708;2022-12-18T05:23:10;8.30;99.90
60234;DHT22;49514;43.538;-5.708;2022-12-18T05:25:36;8.30;99.90
60234;DHT22;49514;43.538;-5.708;2022-12-18T05:28:03;8.20;99.90
60234;DHT22;49514;43.538;-5.708;2022-12-18T05:30:29;8.30;99.90
60234;DHT22;49514;43.538;-5.708;2022-12-18T05:32:56;8.30;99.90
60234;DHT22;49514;43.538;-5.708;2022-12-18T05:35:22;8.40;99.90
60234;DHT22;49514;43.538;-5.708;2022-12-18T05:37:49;8.40;99.90
60234;DHT22;49514;43.538;-5.708;2022-12-18T05:40:15;8.40;99.90
60234;DHT22;49514;43.538;-5.708;2022-12-18T05:42:41;8.50;99.90
60234;DHT22;49514;43.538;-5.708;2022-12-18T05:45:08;8.50;99.90
60234;DHT22;49514;43.538;-5.708;2022-12-18T05:47:34;8.50;99.90
60234;DHT22;49514;43.538;-5.708;2022-12-18T05:50:01;8.50;99.90
60234;DHT22;49514;43.538;-5.708;2022-12-18T05:52:27;8.50;99.90
60234;DHT22;49514;43.538;-5.708;2022-12-18T05:54:54;8.50;99.90
60234;DHT22;49514;43.538;-5.708;2022-12-18T05:57:20;8.40;99.90
60234;DHT22;49514;43.538;-5.708;2022-12-18T05:59:46;8.40;99.90
60234;DHT22;49514;43.538;-5.708;2022-12-18T06:02:13;8.40;99.90
60234;DHT22;49514;43.538;-5.708;2022-12-18T06:04:39;8.30;99.90
60234;DHT22;49514;43.538;-5.708;2022-12-18T06:07:05;8.30;99.90
60234;DHT22;49514;43.538;-5.708;2022-12-18T06:09:32;8.20;99.90
60234;DHT22;49514;43.538;-5.708;2022-12-18T06:11:58;8.10;99.90
60234;DHT22;49514;43.538;-5.708;2022-12-18T06:14:25;8.20;99.90
60234;DHT22;49514;43.538;-5.708;2022-12-18T06:16:51;8.10;99.90
60234;DHT22;49514;43.538;-5.708;2022-12-18T06:19:18;8.20;99.90
60234;DHT22;49514;43.538;-5.708;2022-12-18T06:21:44;8.10;99.90
60234;DHT22;49514;43.538;-5.708;2022-12-18T06:24:11;8.20;99.90
60234;DHT22;49514;43.538;-5.708;2022-12-18T06:26:40;8.20;99.90
60234;DHT22;49514;43.538;-5.708;2022-12-18T06:29:06;8.20;99.90
60234;DHT22;49514;43.538;-5.708;2022-12-18T06:31:33;8.30;99.90
60234;DHT22;49514;43.538;-5.708;2022-12-18T06:34:01;8.30;99.90
60234;DHT22;49514;43.538;-5.708;2022-12-18T06:36:29;8.40;99.90
60234;DHT22;49514;43.538;-5.708;2022-12-18T06:38:55;8.40;99.90
60234;DHT22;49514;43.538;-5.708;2022-12-18T06:41:22;8.40;99.90
60234;DHT22;49514;43.538;-5.708;2022-12-18T06:43:49;8.50;99.90
60234;DHT22;49514;43.538;-5.708;2022-12-18T06:46:16;8.60;99.90
60234;DHT22;49514;43.538;-5.708;2022-12-18T06:48:42;8.60;99.90
60234;DHT22;49514;43.538;-5.708;2022-12-18T06:51:08;8.70;99.90
60234;DHT22;49514;43.538;-5.708;2022-12-18T06:53:35;8.70;99.90
60234;DHT22;49514;43.538;-5.708;2022-12-18T06:56:05;8.70;99.90
60234;DHT22;49514;43.538;-5.708;2022-12-18T06:58:32;8.70;99.90
60234;DHT22;49514;43.538;-5.708;2022-12-18T07:01:03;8.80;99.90
60234;DHT22;49514;43.538;-5.708;2022-12-18T07:03:29;8.80;99.90
60234;DHT22;49514;43.538;-5.708;2022-12-18T07:05:56;8.80;99.90
60234;DHT22;49514;43.538;-5.708;2022-12-18T07:08:23;8.80;99.90
60234;DHT22;49514;43.538;-5.708;2022-12-18T07:10:49;8.80;99.90
60234;DHT22;49514;43.538;-5.708;2022-12-18T07:13:16;9.00;99.90
60234;DHT22;49514;43.538;-5.708;2022-12-18T07:15:42;9.00;99.90
60234;DHT22;49514;43.538;-5.708;2022-12-18T07:18:09;9.10;99.90
60234;DHT22;49514;43.538;-5.708;2022-12-18T07:20:36;9.00;99.90
60234;DHT22;49514;43.538;-5.708;2022-12-18T07:23:03;9.10;99.90
60234;DHT22;49514;43.538;-5.708;2022-12-18T07:25:35;9.20;99.90
60234;DHT22;49514;43.538;-5.708;2022-12-18T07:28:03;9.20;99.90
60234;DHT22;49514;43.538;-5.708;2022-12-18T07:30:30;9.30;99.90
60234;DHT22;49514;43.538;-5.708;2022-12-18T07:32:57;9.40;99.90
60234;DHT22;49514;43.538;-5.708;2022-12-18T07:35:23;9.50;99.90
60234;DHT22;49514;43.538;-5.708;2022-12-18T07:37:51;9.60;99.90
60234;DHT22;49514;43.538;-5.708;2022-12-18T07:40:17;9.60;99.90
60234;DHT22;49514;43.538;-5.708;2022-12-18T07:42:44;9.70;99.90
60234;DHT22;49514;43.538;-5.708;2022-12-18T07:45:11;9.80;99.90
60234;DHT22;49514;43.538;-5.708;2022-12-18T07:47:37;9.90;99.90
60234;DHT22;49514;43.538;-5.708;2022-12-18T07:50:05;9.90;99.90
60234;DHT22;49514;43.538;-5.708;2022-12-18T07:52:32;10.00;99.90
60234;DHT22;49514;43.538;-5.708;2022-12-18T07:54:58;10.00;99.90
60234;DHT22;49514;43.538;-5.708;2022-12-18T07:57:25;10.00;99.90
60234;DHT22;49514;43.538;-5.708;2022-12-18T07:59:52;10.10;99.90
60234;DHT22;49514;43.538;-5.708;2022-12-18T08:02:18;10.10;99.90
60234;DHT22;49514;43.538;-5.708;2022-12-18T08:04:45;10.20;99.90
60234;DHT22;49514;43.538;-5.708;2022-12-18T08:07:13;10.20;99.90
60234;DHT22;49514;43.538;-5.708;2022-12-18T08:09:39;10.20;99.90
60234;DHT22;49514;43.538;-5.708;2022-12-18T08:12:06;10.20;99.90
60234;DHT22;49514;43.538;-5.708;2022-12-18T08:14:33;10.20;99.90
60234;DHT22;49514;43.538;-5.708;2022-12-18T08:17:00;10.20;99.90
60234;DHT22;49514;43.538;-5.708;2022-12-18T08:19:26;10.30;99.90
60234;DHT22;49514;43.538;-5.708;2022-12-18T08:21:53;10.30;99.90
60234;DHT22;49514;43.538;-5.708;2022-12-18T08:24:19;10.30;99.90
60234;DHT22;49514;43.538;-5.708;2022-12-18T08:26:46;10.30;99.90
60234;DHT22;49514;43.538;-5.708;2022-12-18T08:29:12;10.30;99.90
60234;DHT22;49514;43.538;-5.708;2022-12-18T08:31:39;10.30;99.90
60234;DHT22;49514;43.538;-5.708;2022-12-18T08:34:05;10.30;99.90
60234;DHT22;49514;43.538;-5.708;2022-12-18T08:36:32;10.30;99.90
60234;DHT22;49514;43.538;-5.708;2022-12-18T08:38:59;10.30;99.90
60234;DHT22;49514;43.538;-5.708;2022-12-18T08:41:26;10.30;99.90
60234;DHT22;49514;43.538;-5.708;2022-12-18T08:43:52;10.30;99.90
60234;DHT22;49514;43.538;-5.708;2022-12-18T08:46:38;10.30;99.90
60234;DHT22;49514;43.538;-5.708;2022-12-18T08:49:05;10.30;99.90
60234;DHT22;49514;43.538;-5.708;2022-12-18T08:51:32;10.30;99.90
60234;DHT22;49514;43.538;-5.708;2022-12-18T08:53:59;10.30;99.90
60234;DHT22;49514;43.538;-5.708;2022-12-18T08:56:25;10.40;99.90
60234;DHT22;49514;43.538;-5.708;2022-12-18T08:58:52;10.40;99.90
60234;DHT22;49514;43.538;-5.708;2022-12-18T09:01:19;10.40;99.90
60234;DHT22;49514;43.538;-5.708;2022-12-18T09:03:48;10.40;99.90
60234;DHT22;49514;43.538;-5.708;2022-12-18T09:06:18;10.50;99.90
60234;DHT22;49514;43.538;-5.708;2022-12-18T09:08:45;10.50;99.90
60234;DHT22;49514;43.538;-5.708;2022-12-18T09:11:18;10.50;99.90
60234;DHT22;49514;43.538;-5.708;2022-12-18T09:13:45;10.60;99.90
60234;DHT22;49514;43.538;-5.708;2022-12-18T09:16:11;10.60;99.90
60234;DHT22;49514;43.538;-5.708;2022-12-18T09:18:38;10.60;99.90
60234;DHT22;49514;43.538;-5.708;2022-12-18T09:21:11;10.60;99.90
60234;DHT22;49514;43.538;-5.708;2022-12-18T09:23:38;10.70;99.90
60234;DHT22;49514;43.538;-5.708;2022-12-18T09:26:04;10.70;99.90
60234;DHT22;49514;43.538;-5.708;2022-12-18T09:28:31;10.70;99.90
60234;DHT22;49514;43.538;-5.708;2022-12-18T09:30:57;10.80;99.90
60234;DHT22;49514;43.538;-5.708;2022-12-18T09:33:24;10.80;99.90
60234;DHT22;49514;43.538;-5.708;2022-12-18T09:35:51;10.80;99.90
60234;DHT22;49514;43.538;-5.708;2022-12-18T09:38:18;10.90;99.90
60234;DHT22;49514;43.538;-5.708;2022-12-18T09:40:46;11.00;99.90
60234;DHT22;49514;43.538;-5.708;2022-12-18T09:43:18;11.00;99.90
60234;DHT22;49514;43.538;-5.708;2022-12-18T09:45:47;11.00;99.90
60234;DHT22;49514;43.538;-5.708;2022-12-18T09:48:17;11.00;99.90
60234;DHT22;49514;43.538;-5.708;2022-12-18T09:50:45;11.10;99.90
60234;DHT22;49514;43.538;-5.708;2022-12-18T09:53:15;11.20;99.90
60234;DHT22;49514;43.538;-5.708;2022-12-18T09:55:43;11.30;99.90
60234;DHT22;49514;43.538;-5.708;2022-12-18T09:58:20;11.40;99.90
60234;DHT22;49514;43.538;-5.708;2022-12-18T10:00:52;11.50;99.90
60234;DHT22;49514;43.538;-5.708;2022-12-18T10:03:20;11.60;99.90
60234;DHT22;49514;43.538;-5.708;2022-12-18T10:05:53;11.70;99.90
60234;DHT22;49514;43.538;-5.708;2022-12-18T10:13:52;12.10;99.90
60234;DHT22;49514;43.538;-5.708;2022-12-18T10:16:36;12.20;99.90
60234;DHT22;49514;43.538;-5.708;2022-12-18T10:26:46;12.80;99.90
60234;DHT22;49514;43.538;-5.708;2022-12-18T10:29:13;13.00;99.90
60234;DHT22;49514;43.538;-5.708;2022-12-18T10:31:40;13.10;99.90
60234;DHT22;49514;43.538;-5.708;2022-12-18T10:34:10;13.20;99.90
60234;DHT22;49514;43.538;-5.708;2022-12-18T10:36:37;13.40;99.90
60234;DHT22;49514;43.538;-5.708;2022-12-18T10:42:10;13.70;99.90
60234;DHT22;49514;43.538;-5.708;2022-12-18T10:44:40;13.80;99.90
60234;DHT22;49514;43.538;-5.708;2022-12-18T10:47:09;13.90;99.90
60234;DHT22;49514;43.538;-5.708;2022-12-18T10:49:37;14.10;99.90
60234;DHT22;49514;43.538;-5.708;2022-12-18T10:52:15;14.20;99.90
60234;DHT22;49514;43.538;-5.708;2022-12-18T10:54:49;14.30;99.90
60234;DHT22;49514;43.538;-5.708;2022-12-18T10:59:51;14.20;99.90
60234;DHT22;49514;43.538;-5.708;2022-12-18T11:02:33;14.30;99.90
60234;DHT22;49514;43.538;-5.708;2022-12-18T11:05:00;14.50;99.90
60234;DHT22;49514;43.538;-5.708;2022-12-18T11:07:45;14.60;99.90
60234;DHT22;49514;43.538;-5.708;2022-12-18T11:10:15;14.70;99.90
60234;DHT22;49514;43.538;-5.708;2022-12-18T11:12:42;14.70;99.90
60234;DHT22;49514;43.538;-5.708;2022-12-18T11:15:16;14.80;99.90
60234;DHT22;49514;43.538;-5.708;2022-12-18T11:17:44;14.90;99.90
60234;DHT22;49514;43.538;-5.708;2022-12-18T11:20:31;15.10;99.90
60234;DHT22;49514;43.538;-5.708;2022-12-18T11:22:59;15.30;99.90
60234;DHT22;49514;43.538;-5.708;2022-12-18T11:25:26;15.50;99.90
60234;DHT22;49514;43.538;-5.708;2022-12-18T11:27:56;15.60;99.90
60234;DHT22;49514;43.538;-5.708;2022-12-18T11:33:09;16.00;99.90
60234;DHT22;49514;43.538;-5.708;2022-12-18T11:40:51;16.30;99.90
60234;DHT22;49514;43.538;-5.708;2022-12-18T11:48:29;16.50;99.90
60234;DHT22;49514;43.538;-5.708;2022-12-18T11:50:58;16.60;99.90
60234;DHT22;49514;43.538;-5.708;2022-12-18T11:53:27;16.70;99.90
60234;DHT22;49514;43.538;-5.708;2022-12-18T12:03:39;16.90;99.90
60234;DHT22;49514;43.538;-5.708;2022-12-18T12:06:17;16.90;99.90
60234;DHT22;49514;43.538;-5.708;2022-12-18T12:09:04;16.90;99.90
60234;DHT22;49514;43.538;-5.708;2022-12-18T12:16:48;16.90;99.90
60234;DHT22;49514;43.538;-5.708;2022-12-18T12:19:38;16.90;99.90
60234;DHT22;49514;43.538;-5.708;2022-12-18T12:22:13;16.90;99.90
60234;DHT22;49514;43.538;-5.708;2022-12-18T12:27:15;16.90;99.90
60234;DHT22;49514;43.538;-5.708;2022-12-18T12:29:56;17.00;99.90
60234;DHT22;49514;43.538;-5.708;2022-12-18T12:40:17;17.20;99.90
60234;DHT22;49514;43.538;-5.708;2022-12-18T12:42:46;17.20;99.90
60234;DHT22;49514;43.538;-5.708;2022-12-18T12:48:16;17.20;99.90
60234;DHT22;49514;43.538;-5.708;2022-12-18T12:50:43;17.20;99.90
60234;DHT22;49514;43.538;-5.708;2022-12-18T12:53:14;17.20;99.90
60234;DHT22;49514;43.538;-5.708;2022-12-18T12:55:43;17.20;99.90
60234;DHT22;49514;43.538;-5.708;2022-12-18T13:06:10;17.10;99.90
60234;DHT22;49514;43.538;-5.708;2022-12-18T13:08:55;17.10;99.90
60234;DHT22;49514;43.538;-5.708;2022-12-18T13:14:20;17.00;99.90
60234;DHT22;49514;43.538;-5.708;2022-12-18T13:16:47;17.00;99.90
60234;DHT22;49514;43.538;-5.708;2022-12-18T13:19:23;16.90;99.90
60234;DHT22;49514;43.538;-5.708;2022-12-18T13:21:53;16.90;99.90
60234;DHT22;49514;43.538;-5.708;2022-12-18T13:24:26;16.80;99.90
60234;DHT22;49514;43.538;-5.708;2022-12-18T13:26:53;16.70;99.90
60234;DHT22;49514;43.538;-5.708;2022-12-18T13:32:11;16.70;99.90
60234;DHT22;49514;43.538;-5.708;2022-12-18T13:34:44;16.70;99.90
60234;DHT22;49514;43.538;-5.708;2022-12-18T13:39:56;16.80;99.90
60234;DHT22;49514;43.538;-5.708;2022-12-18T13:42:36;16.80;99.90
60234;DHT22;49514;43.538;-5.708;2022-12-18T13:45:37;16.90;99.90
60234;DHT22;49514;43.538;-5.708;2022-12-18T13:48:05;17.00;99.90
60234;DHT22;49514;43.538;-5.708;2022-12-18T13:50:40;17.00;99.90
60234;DHT22;49514;43.538;-5.708;2022-12-18T13:53:07;17.10;99.90
60234;DHT22;49514;43.538;-5.708;2022-12-18T13:55:43;17.10;99.90
60234;DHT22;49514;43.538;-5.708;2022-12-18T13:58:11;17.10;99.90
60234;DHT22;49514;43.538;-5.708;2022-12-18T14:00:41;17.20;99.90
60234;DHT22;49514;43.538;-5.708;2022-12-18T14:03:16;17.20;99.90
60234;DHT22;49514;43.538;-5.708;2022-12-18T14:05:43;17.20;99.90
60234;DHT22;49514;43.538;-5.708;2022-12-18T14:08:13;17.20;99.90
60234;DHT22;49514;43.538;-5.708;2022-12-18T14:10:46;17.20;99.90
60234;DHT22;49514;43.538;-5.708;2022-12-18T14:13:21;17.20;99.90
60234;DHT22;49514;43.538;-5.708;2022-12-18T14:15:54;17.10;99.90
60234;DHT22;49514;43.538;-5.708;2022-12-18T14:19:04;17.10;99.90
60234;DHT22;49514;43.538;-5.708;2022-12-18T14:21:22;17.00;99.90
60234;DHT22;49514;43.538;-5.708;2022-12-18T14:23:57;17.10;99.90
60234;DHT22;49514;43.538;-5.708;2022-12-18T14:26:30;17.10;99.90
60234;DHT22;49514;43.538;-5.708;2022-12-18T14:28:58;17.10;99.90
60234;DHT22;49514;43.538;-5.708;2022-12-18T14:31:28;17.10;99.90
60234;DHT22;49514;43.538;-5.708;2022-12-18T14:33:55;17.20;99.90
60234;DHT22;49514;43.538;-5.708;2022-12-18T14:36:26;17.20;99.90
60234;DHT22;49514;43.538;-5.708;2022-12-18T14:38:54;17.20;99.90
60234;DHT22;49514;43.538;-5.708;2022-12-18T14:41:21;17.20;99.90
60234;DHT22;49514;43.538;-5.708;2022-12-18T14:43:48;17.20;99.90
60234;DHT22;49514;43.538;-5.708;2022-12-18T14:49:02;17.30;99.90
60234;DHT22;49514;43.538;-5.708;2022-12-18T14:51:30;17.20;99.90
60234;DHT22;49514;43.538;-5.708;2022-12-18T14:54:06;17.20;99.90
60234;DHT22;49514;43.538;-5.708;2022-12-18T14:59:26;17.20;99.90
60234;DHT22;49514;43.538;-5.708;2022-12-18T15:04:38;17.10;99.90
60234;DHT22;49514;43.538;-5.708;2022-12-18T15:07:12;17.00;99.90
60234;DHT22;49514;43.538;-5.708;2022-12-18T15:09:40;17.00;99.90
60234;DHT22;49514;43.538;-5.708;2022-12-18T15:12:24;16.90;99.90
60234;DHT22;49514;43.538;-5.708;2022-12-18T15:14:52;16.90;99.90
60234;DHT22;49514;43.538;-5.708;2022-12-18T15:17:19;16.80;99.90
60234;DHT22;49514;43.538;-5.708;2022-12-18T15:19:47;16.70;99.90
60234;DHT22;49514;43.538;-5.708;2022-12-18T15:22:17;16.70;99.90
60234;DHT22;49514;43.538;-5.708;2022-12-18T15:24:44;16.70;99.90
60234;DHT22;49514;43.538;-5.708;2022-12-18T15:30:20;16.50;99.90
60234;DHT22;49514;43.538;-5.708;2022-12-18T15:32:47;16.50;99.90
60234;DHT22;49514;43.538;-5.708;2022-12-18T15:35:16;16.50;99.90
60234;DHT22;49514;43.538;-5.708;2022-12-18T15:37:43;16.40;99.90
60234;DHT22;49514;43.538;-5.708;2022-12-18T15:40:12;16.40;99.90
60234;DHT22;49514;43.538;-5.708;2022-12-18T15:42:38;16.40;99.90
60234;DHT22;49514;43.538;-5.708;2022-12-18T15:45:23;16.40;99.90
60234;DHT22;49514;43.538;-5.708;2022-12-18T15:47:50;16.40;99.90
60234;DHT22;49514;43.538;-5.708;2022-12-18T15:50:17;16.30;99.90
60234;DHT22;49514;43.538;-5.708;2022-12-18T15:52:46;16.30;99.90
60234;DHT22;49514;43.538;-5.708;2022-12-18T15:55:15;16.30;99.90
60234;DHT22;49514;43.538;-5.708;2022-12-18T15:58:00;16.30;99.90
60234;DHT22;49514;43.538;-5.708;2022-12-18T16:00:27;16.30;99.90
60234;DHT22;49514;43.538;-5.708;2022-12-18T16:02:54;16.30;99.90
60234;DHT22;49514;43.538;-5.708;2022-12-18T16:05:20;16.40;99.90
60234;DHT22;49514;43.538;-5.708;2022-12-18T16:07:47;16.40;99.90
60234;DHT22;49514;43.538;-5.708;2022-12-18T16:10:14;16.50;99.90
60234;DHT22;49514;43.538;-5.708;2022-12-18T16:12:41;16.70;99.90
60234;DHT22;49514;43.538;-5.708;2022-12-18T16:15:07;16.70;99.90
60234;DHT22;49514;43.538;-5.708;2022-12-18T16:17:36;16.70;99.90
60234;DHT22;49514;43.538;-5.708;2022-12-18T16:20:02;16.60;99.90
60234;DHT22;49514;43.538;-5.708;2022-12-18T16:22:29;16.50;99.90
60234;DHT22;49514;43.538;-5.708;2022-12-18T16:24:56;16.40;99.90
60234;DHT22;49514;43.538;-5.708;2022-12-18T16:27:23;16.30;99.90
60234;DHT22;49514;43.538;-5.708;2022-12-18T16:29:50;16.20;99.90
60234;DHT22;49514;43.538;-5.708;2022-12-18T16:32:18;16.10;99.90
60234;DHT22;49514;43.538;-5.708;2022-12-18T16:34:45;16.00;99.90
60234;DHT22;49514;43.538;-5.708;2022-12-18T16:37:12;15.90;99.90
60234;DHT22;49514;43.538;-5.708;2022-12-18T16:39:40;15.80;99.90
60234;DHT22;49514;43.538;-5.708;2022-12-18T16:42:13;15.70;99.90
60234;DHT22;49514;43.538;-5.708;2022-12-18T16:44:44;15.60;99.90
60234;DHT22;49514;43.538;-5.708;2022-12-18T16:47:12;15.50;99.90
60234;DHT22;49514;43.538;-5.708;2022-12-18T16:49:39;15.40;99.90
60234;DHT22;49514;43.538;-5.708;2022-12-18T16:52:06;15.30;99.90
60234;DHT22;49514;43.538;-5.708;2022-12-18T16:54:33;15.20;99.90
60234;DHT22;49514;43.538;-5.708;2022-12-18T16:57:02;15.20;99.90
60234;DHT22;49514;43.538;-5.708;2022-12-18T16:59:31;15.10;99.90
60234;DHT22;49514;43.538;-5.708;2022-12-18T17:01:57;15.10;99.90
60234;DHT22;49514;43.538;-5.708;2022-12-18T17:04:24;15.00;99.90
60234;DHT22;49514;43.538;-5.708;2022-12-18T17:06:51;15.00;99.90
60234;DHT22;49514;43.538;-5.708;2022-12-18T17:09:20;15.00;99.90
60234;DHT22;49514;43.538;-5.708;2022-12-18T17:11:54;15.10;99.90
60234;DHT22;49514;43.538;-5.708;2022-12-18T17:14:22;15.10;99.90
60234;DHT22;49514;43.538;-5.708;2022-12-18T17:16:51;15.20;99.90
60234;DHT22;49514;43.538;-5.708;2022-12-18T17:19:18;15.20;99.90
60234;DHT22;49514;43.538;-5.708;2022-12-18T17:21:48;15.20;99.90
60234;DHT22;49514;43.538;-5.708;2022-12-18T17:24:16;15.20;99.90
60234;DHT22;49514;43.538;-5.708;2022-12-18T17:26:43;15.30;99.90
60234;DHT22;49514;43.538;-5.708;2022-12-18T17:29:13;15.20;99.90
60234;DHT22;49514;43.538;-5.708;2022-12-18T17:31:40;15.20;99.90
60234;DHT22;49514;43.538;-5.708;2022-12-18T17:34:09;15.10;99.90